createdAt,value
2022-10-17T00:01:25.240Z,4.07
2022-10-17T00:03:54.165Z,4.72
2022-10-17T00:06:22.990Z,4.43
2022-10-17T00:08:51.813Z,4.43
2022-10-17T00:11:23.259Z,4.45
2022-10-17T00:13:55.334Z,7.68
2022-10-17T00:16:32.527Z,5.72
2022-10-17T00:19:02.003Z,5.93
2022-10-17T00:21:30.865Z,4.53
2022-10-17T00:24:00.926Z,5.82
2022-10-17T00:26:30.292Z,6.78
2022-10-17T00:28:59.280Z,4.95
2022-10-17T00:31:29.645Z,5.00
2022-10-17T00:33:58.427Z,5.15
2022-10-17T00:36:28.264Z,5.53
2022-10-17T00:38:59.280Z,4.75
2022-10-17T00:41:30.668Z,3.78
2022-10-17T00:44:02.041Z,4.00
2022-10-17T00:46:33.809Z,3.88
2022-10-17T00:49:09.551Z,3.65
2022-10-17T00:51:43.040Z,4.90
2022-10-17T00:54:14.075Z,4.20
2022-10-17T00:56:43.460Z,3.47
2022-10-17T00:59:14.768Z,4.43
2022-10-17T01:01:52.624Z,4.40
2022-10-17T01:04:22.060Z,3.58
2022-10-17T01:06:51.274Z,5.38
2022-10-17T01:09:20.225Z,3.45
2022-10-17T01:11:56.296Z,4.85
2022-10-17T01:14:33.823Z,3.80
2022-10-17T01:17:14.449Z,4.38
2022-10-17T01:20:00.563Z,4.97
2022-10-17T01:22:38.915Z,3.35
2022-10-17T01:25:25.165Z,4.43
2022-10-17T01:28:10.674Z,5.55
2022-10-17T01:31:00.757Z,5.07
2022-10-17T01:33:45.768Z,4.40
2022-10-17T01:36:26.189Z,6.22
2022-10-17T01:39:00.940Z,4.60
2022-10-17T01:41:38.730Z,3.95
2022-10-17T01:44:14.591Z,5.28
2022-10-17T01:46:47.849Z,6.25
2022-10-17T01:49:20.894Z,5.05
2022-10-17T01:51:53.567Z,6.00
2022-10-17T01:54:26.203Z,6.20
2022-10-17T01:56:59.974Z,6.97
2022-10-17T01:59:38.528Z,5.25
2022-10-17T02:02:10.717Z,5.70
2022-10-17T02:04:39.686Z,4.95
2022-10-17T02:07:09.358Z,5.05
2022-10-17T02:09:39.843Z,5.70
2022-10-17T02:12:29.260Z,4.28
2022-10-17T02:15:11.763Z,4.78
2022-10-17T02:17:49.276Z,4.43
2022-10-17T02:20:25.359Z,4.85
2022-10-17T02:23:00.194Z,6.22
2022-10-17T02:25:41.583Z,4.68
2022-10-17T02:28:21.922Z,7.75
2022-10-17T02:30:55.540Z,5.18
2022-10-17T02:33:29.699Z,5.25
2022-10-17T02:36:03.198Z,5.37
2022-10-17T02:38:33.588Z,5.72
2022-10-17T02:41:05.193Z,6.80
2022-10-17T02:43:35.261Z,5.45
2022-10-17T02:46:04.657Z,6.30
2022-10-17T02:48:39.701Z,6.47
2022-10-17T02:51:18.142Z,5.28
2022-10-17T02:53:54.775Z,5.90
2022-10-17T02:56:25.870Z,6.47
2022-10-17T02:58:58.802Z,4.55
2022-10-17T03:01:28.624Z,5.50
2022-10-17T03:04:08.394Z,4.78
2022-10-17T03:06:37.364Z,5.70
2022-10-17T03:09:06.712Z,5.38
2022-10-17T03:11:35.675Z,4.38
2022-10-17T03:14:04.553Z,4.78
2022-10-17T03:16:34.065Z,5.55
2022-10-17T03:19:03.739Z,5.28
2022-10-17T03:21:36.470Z,4.28
2022-10-17T03:24:06.083Z,6.88
2022-10-17T03:26:34.998Z,6.78
2022-10-17T03:29:05.107Z,7.43
2022-10-17T03:31:35.711Z,8.52
2022-10-17T03:34:05.537Z,6.43
2022-10-17T03:36:35.911Z,7.60
2022-10-17T03:39:05.532Z,6.40
2022-10-17T03:41:35.442Z,7.32
2022-10-17T03:44:04.515Z,5.95
2022-10-17T03:46:33.642Z,6.82
2022-10-17T03:49:03.287Z,9.25
2022-10-17T03:51:35.695Z,5.72
2022-10-17T03:54:09.190Z,7.13
2022-10-17T03:56:38.457Z,8.27
2022-10-17T03:59:14.047Z,10.02
2022-10-17T04:01:44.904Z,9.88
2022-10-17T04:04:15.012Z,9.80
2022-10-17T04:06:45.330Z,7.70
2022-10-17T04:09:14.350Z,7.55
2022-10-17T04:11:55.894Z,6.43
2022-10-17T04:14:25.399Z,8.68
2022-10-17T04:16:54.667Z,8.68
2022-10-17T04:19:23.943Z,8.85
2022-10-17T04:21:54.353Z,7.47
2022-10-17T04:24:23.750Z,8.30
2022-10-17T04:26:59.271Z,6.50
2022-10-17T04:29:31.288Z,7.97
2022-10-17T04:32:07.883Z,6.53
2022-10-17T04:34:43.099Z,5.45
2022-10-17T04:37:13.708Z,7.53
2022-10-17T04:39:42.676Z,6.57
2022-10-17T04:42:11.785Z,6.88
2022-10-17T04:44:41.307Z,6.57
2022-10-17T04:47:11.143Z,8.50
2022-10-17T04:52:17.954Z,10.57
2022-10-17T04:54:50.253Z,8.32
2022-10-17T04:57:20.673Z,10.68
2022-10-17T04:59:59.432Z,12.50
2022-10-17T05:02:47.596Z,12.35
2022-10-17T05:05:17.267Z,11.98
2022-10-17T05:07:49.858Z,12.05
2022-10-17T05:10:21.320Z,9.98
2022-10-17T05:12:53.109Z,10.75
2022-10-17T05:15:25.265Z,8.32
2022-10-17T05:17:56.986Z,11.20
2022-10-17T05:20:27.702Z,8.05
2022-10-17T05:23:00.162Z,8.55
2022-10-17T05:25:34.868Z,8.23
2022-10-17T05:28:03.768Z,9.57
2022-10-17T05:30:35.279Z,9.65
2022-10-17T05:33:08.062Z,8.18
2022-10-17T05:35:37.532Z,8.27
2022-10-17T05:38:09.119Z,8.90
2022-10-17T05:40:39.649Z,8.20
2022-10-17T05:43:08.567Z,6.85
2022-10-17T05:45:37.918Z,6.78
2022-10-17T05:48:10.125Z,9.00
2022-10-17T05:50:39.067Z,8.43
2022-10-17T05:53:17.847Z,7.97
2022-10-17T05:55:57.314Z,6.55
2022-10-17T06:01:30.409Z,10.55
2022-10-17T06:03:59.916Z,9.98
2022-10-17T06:06:29.605Z,8.90
2022-10-17T06:08:59.885Z,8.90
2022-10-17T06:11:48.517Z,7.90
2022-10-17T06:14:18.401Z,9.02
2022-10-17T06:16:52.011Z,4.78
2022-10-17T06:19:20.908Z,5.60
2022-10-17T06:21:49.872Z,3.75
2022-10-17T06:24:24.770Z,5.00
2022-10-17T06:26:55.086Z,5.05
2022-10-17T06:29:24.503Z,6.53
2022-10-17T06:31:54.546Z,5.90
2022-10-17T06:34:23.726Z,6.25
2022-10-17T06:36:52.687Z,5.35
2022-10-17T06:39:22.638Z,5.90
2022-10-17T06:42:05.370Z,4.40
2022-10-17T06:45:00.745Z,4.95
2022-10-17T06:48:05.734Z,6.72
2022-10-17T06:51:09.854Z,6.95
2022-10-17T06:53:47.927Z,7.25
2022-10-17T06:56:37.279Z,5.57
2022-10-17T06:59:30.958Z,5.10
2022-10-17T07:02:10.752Z,4.80
2022-10-17T07:04:40.406Z,4.53
2022-10-17T07:07:09.548Z,4.60
2022-10-17T07:09:38.962Z,5.20
2022-10-17T07:12:08.596Z,3.97
2022-10-17T07:14:39.089Z,2.53
2022-10-17T07:17:08.218Z,2.90
2022-10-17T07:19:37.105Z,2.70
2022-10-17T07:22:06.110Z,2.67
2022-10-17T07:24:35.819Z,2.58
2022-10-17T07:27:31.726Z,2.90
2022-10-17T07:30:02.146Z,2.72
2022-10-17T07:32:37.446Z,3.75
2022-10-17T07:35:07.780Z,4.70
2022-10-17T07:37:37.951Z,3.00
2022-10-17T07:40:09.569Z,3.25
2022-10-17T07:45:15.933Z,3.13
2022-10-17T07:47:45.828Z,3.25
2022-10-17T07:50:17.467Z,3.00
2022-10-17T07:52:46.469Z,2.50
2022-10-17T07:55:15.559Z,2.80
2022-10-17T07:57:44.510Z,2.97
2022-10-17T08:00:15.715Z,2.80
2022-10-17T08:02:44.578Z,2.10
2022-10-17T08:05:13.401Z,2.92
2022-10-17T08:07:42.259Z,2.63
2022-10-17T08:10:12.960Z,2.10
2022-10-17T08:12:42.028Z,2.20
2022-10-17T08:15:11.956Z,2.05
2022-10-17T08:17:42.149Z,2.50
2022-10-17T08:20:12.430Z,2.85
2022-10-17T08:22:41.310Z,2.15
2022-10-17T08:25:11.005Z,2.75
2022-10-17T08:27:39.839Z,2.13
2022-10-17T08:30:10.149Z,1.98
2022-10-17T08:32:39.010Z,1.60
2022-10-17T08:35:10.444Z,1.88
2022-10-17T08:37:39.259Z,1.48
2022-10-17T08:40:11.224Z,1.25
2022-10-17T08:42:56.430Z,1.67
2022-10-17T08:45:30.284Z,1.63
2022-10-17T08:48:02.082Z,1.58
2022-10-17T08:50:38.374Z,1.15
2022-10-17T08:53:15.882Z,0.60
2022-10-17T08:55:48.187Z,1.75
2022-10-17T08:58:21.249Z,0.85
2022-10-17T09:00:59.291Z,1.23
2022-10-17T09:03:46.763Z,1.67
2022-10-17T09:06:29.802Z,1.30
2022-10-17T09:09:19.660Z,1.27
2022-10-17T09:12:04.061Z,1.35
2022-10-17T09:14:55.463Z,1.17
2022-10-17T09:17:35.993Z,1.00
2022-10-17T09:20:11.435Z,1.30
2022-10-17T09:22:47.835Z,0.73
2022-10-17T09:25:20.210Z,1.15
2022-10-17T09:27:52.713Z,1.40
2022-10-17T09:30:45.031Z,0.70
2022-10-17T09:33:34.416Z,1.50
2022-10-17T09:36:10.149Z,1.00
2022-10-17T09:38:43.647Z,0.80
2022-10-17T09:41:43.501Z,1.17
2022-10-17T09:44:19.127Z,1.17
2022-10-17T09:47:03.702Z,0.80
2022-10-17T09:49:34.956Z,1.30
2022-10-17T09:52:06.739Z,0.93
2022-10-17T09:54:44.104Z,0.75
2022-10-17T09:57:15.123Z,0.98
2022-10-17T09:59:46.419Z,0.70
2022-10-17T10:02:22.346Z,0.85
2022-10-17T10:05:04.534Z,0.75
2022-10-17T10:07:36.517Z,1.80
2022-10-17T10:10:23.757Z,0.90
2022-10-17T10:13:05.498Z,0.55
2022-10-17T10:15:37.873Z,0.55
2022-10-17T10:18:33.108Z,0.55
2022-10-17T10:21:09.591Z,0.63
2022-10-17T10:23:40.626Z,0.70
2022-10-17T10:26:25.802Z,0.80
2022-10-17T10:28:59.228Z,0.70
2022-10-17T10:34:24.211Z,0.65
2022-10-17T10:37:03.331Z,0.77
2022-10-17T10:39:42.016Z,0.88
2022-10-17T10:42:27.604Z,0.80
2022-10-17T10:45:03.293Z,0.65
2022-10-17T10:47:33.752Z,0.88
2022-10-17T10:50:25.533Z,0.85
2022-10-17T10:53:17.831Z,0.90
2022-10-17T10:55:51.969Z,0.93
2022-10-17T10:58:34.729Z,0.68
2022-10-17T11:01:13.327Z,0.50
2022-10-17T11:03:51.277Z,0.80
2022-10-17T11:06:24.983Z,1.52
2022-10-17T11:09:06.662Z,0.50
2022-10-17T11:11:40.638Z,1.25
2022-10-17T11:14:16.531Z,0.80
2022-10-17T11:16:48.917Z,0.60
2022-10-17T11:19:38.301Z,0.43
2022-10-17T11:22:16.053Z,0.98
2022-10-17T11:24:57.029Z,0.75
2022-10-17T11:27:27.131Z,0.50
2022-10-17T11:29:58.179Z,0.65
2022-10-17T11:32:31.653Z,0.55
2022-10-17T11:35:04.798Z,0.90
2022-10-17T11:37:40.636Z,0.57
2022-10-17T11:40:19.265Z,0.60
2022-10-17T11:42:58.324Z,0.70
2022-10-17T11:45:32.077Z,0.65
2022-10-17T11:48:05.948Z,0.90
2022-10-17T11:53:30.008Z,0.68
2022-10-17T11:56:01.986Z,0.93
2022-10-17T11:58:40.727Z,1.63
2022-10-17T12:01:22.135Z,0.75
2022-10-17T12:04:13.992Z,0.60
2022-10-17T12:06:56.302Z,0.75
2022-10-17T12:09:32.662Z,1.20
2022-10-17T12:12:03.371Z,0.68
2022-10-17T12:14:45.135Z,1.20
2022-10-17T12:17:32.606Z,0.70
2022-10-17T12:20:32.897Z,0.57
2022-10-17T12:23:21.208Z,0.95
2022-10-17T12:25:52.809Z,1.20
2022-10-17T12:28:28.659Z,1.05
2022-10-17T12:31:00.762Z,0.88
2022-10-17T12:33:38.356Z,0.70
2022-10-17T12:36:46.154Z,1.40
2022-10-17T12:39:53.945Z,0.80
2022-10-17T12:42:48.667Z,0.88
2022-10-17T12:45:46.194Z,0.90
2022-10-17T12:48:35.328Z,0.90
2022-10-17T12:54:00.216Z,0.68
2022-10-17T12:56:37.025Z,1.08
2022-10-17T12:59:14.304Z,0.47
2022-10-17T13:01:46.540Z,0.77
2022-10-17T13:04:16.383Z,1.00
2022-10-17T13:06:54.033Z,0.80
2022-10-17T13:09:28.445Z,0.80
2022-10-17T13:12:00.060Z,1.10
2022-10-17T13:14:31.081Z,0.77
2022-10-17T13:17:01.967Z,1.17
2022-10-17T13:19:32.865Z,1.00
2022-10-17T13:22:07.173Z,1.23
2022-10-17T13:24:38.026Z,0.87
2022-10-17T13:27:08.707Z,0.95
2022-10-17T13:29:45.773Z,1.10
2022-10-17T13:32:14.842Z,0.95
2022-10-17T13:34:43.748Z,0.88
2022-10-17T13:37:16.787Z,1.13
2022-10-17T13:40:00.359Z,1.02
2022-10-17T13:42:40.428Z,1.13
2022-10-17T13:45:19.439Z,1.30
2022-10-17T13:47:48.584Z,1.50
2022-10-17T13:50:43.055Z,0.93
2022-10-17T13:53:22.387Z,1.95
2022-10-17T13:56:16.139Z,1.10
2022-10-17T13:58:50.710Z,1.33
2022-10-17T14:01:21.665Z,1.27
2022-10-17T14:04:02.221Z,0.90
2022-10-17T14:06:45.092Z,1.35
2022-10-17T14:09:23.447Z,1.25
2022-10-17T14:12:02.021Z,1.15
2022-10-17T14:14:46.130Z,1.33
2022-10-17T14:17:24.904Z,0.95
2022-10-17T14:20:14.119Z,1.67
2022-10-17T14:22:47.272Z,1.10
2022-10-17T14:25:35.320Z,1.05
2022-10-17T14:28:15.156Z,1.52
2022-10-17T14:30:56.187Z,1.67
2022-10-17T14:33:29.647Z,0.85
2022-10-17T14:36:00.783Z,0.90
2022-10-17T14:38:31.048Z,1.25
2022-10-17T14:41:37.425Z,1.20
2022-10-17T14:43:56.028Z,1.40
2022-10-17T14:46:25.679Z,2.17
2022-10-17T14:48:57.225Z,1.75
2022-10-17T14:51:26.147Z,1.20
2022-10-17T14:54:07.139Z,1.50
2022-10-17T14:56:40.961Z,1.08
2022-10-17T14:59:13.804Z,1.33
2022-10-17T15:01:47.211Z,1.45
2022-10-17T15:04:16.177Z,0.90
2022-10-17T15:06:45.745Z,1.15
2022-10-17T15:09:14.557Z,1.70
2022-10-17T15:11:44.721Z,0.90
2022-10-17T15:14:13.513Z,1.45
2022-10-17T15:16:42.291Z,1.48
2022-10-17T15:19:13.564Z,1.73
2022-10-17T15:21:46.264Z,1.20
2022-10-17T15:24:16.184Z,1.98
2022-10-17T15:26:46.561Z,2.55
2022-10-17T15:29:16.756Z,1.67
2022-10-17T15:31:45.562Z,1.98
2022-10-17T15:34:14.416Z,1.48
2022-10-17T15:36:49.634Z,1.50
2022-10-17T15:39:18.439Z,1.75
2022-10-17T15:41:49.366Z,1.80
2022-10-17T15:44:18.564Z,2.42
2022-10-17T15:46:47.601Z,2.05
2022-10-17T15:49:19.778Z,2.20
2022-10-17T15:51:54.365Z,1.80
2022-10-17T15:54:24.118Z,1.60
2022-10-17T15:56:58.351Z,2.10
2022-10-17T15:59:33.362Z,1.40
2022-10-17T16:02:02.404Z,2.10
2022-10-17T16:04:34.740Z,1.58
2022-10-17T16:07:03.749Z,1.95
2022-10-17T16:09:33.429Z,1.60
2022-10-17T16:12:04.274Z,1.80
2022-10-17T16:14:33.384Z,2.70
2022-10-17T16:17:02.237Z,1.85
2022-10-17T16:19:31.138Z,1.42
2022-10-17T16:22:04.283Z,1.95
2022-10-17T16:24:33.809Z,1.52
2022-10-17T16:27:04.004Z,1.95
2022-10-17T16:29:32.861Z,1.52
2022-10-17T16:32:01.985Z,1.98
2022-10-17T16:34:32.403Z,2.13
2022-10-17T16:37:01.969Z,7.05
2022-10-17T16:39:30.917Z,10.20
2022-10-17T16:41:59.775Z,12.43
2022-10-17T16:44:30.010Z,4.68
2022-10-17T16:46:58.837Z,3.75
2022-10-17T16:49:27.775Z,3.28
2022-10-17T16:51:56.663Z,4.60
2022-10-17T16:54:25.540Z,5.28
2022-10-17T16:56:54.346Z,6.53
2022-10-17T16:59:23.483Z,8.07
2022-10-17T17:01:53.761Z,11.32
2022-10-17T17:04:23.419Z,10.27
2022-10-17T17:06:52.329Z,10.52
2022-10-17T17:09:21.175Z,12.25
2022-10-17T17:11:50.136Z,9.52
2022-10-17T17:14:19.026Z,10.00
2022-10-17T17:16:47.906Z,9.18
2022-10-17T17:19:18.137Z,11.82
2022-10-17T17:21:50.965Z,11.77
2022-10-17T17:24:21.101Z,9.73
2022-10-17T17:26:53.100Z,10.93
2022-10-17T17:29:22.163Z,11.70
2022-10-17T17:31:51.838Z,10.88
2022-10-17T17:34:22.069Z,11.20
2022-10-17T17:36:51.076Z,14.07
2022-10-17T17:39:19.964Z,14.57
2022-10-17T17:41:48.781Z,13.70
2022-10-17T17:44:17.687Z,14.82
2022-10-17T17:46:46.985Z,15.50
2022-10-17T17:49:15.916Z,14.30
2022-10-17T17:51:46.767Z,8.70
2022-10-17T17:54:16.071Z,8.30
2022-10-17T17:56:44.904Z,8.80
2022-10-17T17:59:14.606Z,8.13
2022-10-17T18:01:44.530Z,9.35
2022-10-17T18:04:13.978Z,11.88
2022-10-17T18:06:43.087Z,11.43
2022-10-17T18:09:13.292Z,11.65
2022-10-17T18:11:42.223Z,11.77
2022-10-17T18:14:13.156Z,9.70
2022-10-17T18:16:42.602Z,10.73
2022-10-17T18:19:12.980Z,11.60
2022-10-17T18:21:41.900Z,11.23
2022-10-17T18:24:11.198Z,11.02
2022-10-17T18:26:41.513Z,10.95
2022-10-17T18:29:11.767Z,11.85
2022-10-17T18:31:40.890Z,10.23
2022-10-17T18:34:09.731Z,10.18
2022-10-17T18:36:38.888Z,12.07
2022-10-17T18:39:07.804Z,11.93
2022-10-17T18:41:36.709Z,12.07
2022-10-17T18:44:08.981Z,9.85
2022-10-17T18:46:40.996Z,17.00
2022-10-17T18:49:10.426Z,13.60
2022-10-17T18:51:39.333Z,11.38
2022-10-17T18:54:12.359Z,13.18
2022-10-17T18:56:41.736Z,13.85
2022-10-17T18:59:11.979Z,12.32
2022-10-17T19:01:40.932Z,14.45
2022-10-17T19:04:09.965Z,13.40
2022-10-17T19:06:39.339Z,12.82
2022-10-17T19:09:11.538Z,14.73
2022-10-17T19:11:40.739Z,14.00
2022-10-17T19:14:13.991Z,13.48
2022-10-17T19:16:44.468Z,13.68
2022-10-17T19:19:15.149Z,12.05
2022-10-17T19:21:44.483Z,14.98
2022-10-17T19:24:15.849Z,12.32
2022-10-17T19:26:47.453Z,12.55
2022-10-17T19:29:19.115Z,10.85
2022-10-17T19:31:48.899Z,10.32
2022-10-17T19:34:18.748Z,8.32
2022-10-17T19:36:47.654Z,8.80
2022-10-17T19:39:19.479Z,9.10
2022-10-17T19:41:49.232Z,9.52
2022-10-17T19:44:19.619Z,10.23
2022-10-17T19:46:49.399Z,14.35
2022-10-17T19:49:19.029Z,13.32
2022-10-17T19:51:48.009Z,14.73
2022-10-17T19:54:18.711Z,12.25
2022-10-17T19:56:48.135Z,12.63
2022-10-17T19:59:18.145Z,11.10
2022-10-17T20:01:48.572Z,9.68
2022-10-17T20:04:17.485Z,10.10
2022-10-17T20:06:46.273Z,8.52
2022-10-17T20:09:17.091Z,8.60
2022-10-17T20:11:46.550Z,8.18
2022-10-17T20:14:15.433Z,6.95
2022-10-17T20:16:50.102Z,8.45
2022-10-17T20:19:21.126Z,8.02
2022-10-17T20:21:50.294Z,9.13
2022-10-17T20:24:19.130Z,9.13
2022-10-17T20:26:47.948Z,9.85
2022-10-17T20:29:18.575Z,9.25
2022-10-17T20:31:48.930Z,9.48
2022-10-17T20:34:20.312Z,7.28
2022-10-17T20:36:49.748Z,10.00
2022-10-17T20:39:20.830Z,9.65
2022-10-17T20:41:49.723Z,9.77
2022-10-17T20:44:18.579Z,9.18
2022-10-17T20:47:01.241Z,8.88
2022-10-17T20:49:33.713Z,8.85
2022-10-17T20:52:03.291Z,9.00
2022-10-17T20:54:32.731Z,9.60
2022-10-17T20:57:04.102Z,8.52
2022-10-17T20:59:36.124Z,8.40
2022-10-17T21:02:05.472Z,7.00
2022-10-17T21:04:50.983Z,8.45
2022-10-17T21:07:21.203Z,7.47
2022-10-17T21:09:50.029Z,6.72
2022-10-17T21:12:26.253Z,7.18
2022-10-17T21:15:00.448Z,7.13
2022-10-17T21:17:29.761Z,7.20
2022-10-17T21:19:59.983Z,6.97
2022-10-17T21:22:29.895Z,7.90
2022-10-17T21:24:59.019Z,8.50
2022-10-17T21:27:28.058Z,6.93
2022-10-17T21:29:57.032Z,7.18
2022-10-17T21:32:40.285Z,6.28
2022-10-17T21:35:16.233Z,7.60
2022-10-17T21:37:45.048Z,15.25
2022-10-17T21:40:14.306Z,10.95
2022-10-17T21:42:43.178Z,11.05
2022-10-17T21:45:15.782Z,9.98
2022-10-17T21:48:12.316Z,10.25
2022-10-17T21:50:43.340Z,8.45
2022-10-17T21:53:12.144Z,11.43
2022-10-17T21:55:41.004Z,9.93
2022-10-17T21:58:10.236Z,10.10
2022-10-17T22:00:39.101Z,11.20
2022-10-17T22:03:09.613Z,11.30
2022-10-17T22:05:38.466Z,10.80
2022-10-17T22:08:08.836Z,11.07
2022-10-17T22:10:38.750Z,13.68
2022-10-17T22:13:07.663Z,11.77
2022-10-17T22:15:36.503Z,11.05
2022-10-17T22:18:05.458Z,8.13
2022-10-17T22:20:35.137Z,10.02
2022-10-17T22:23:03.998Z,7.95
2022-10-17T22:25:34.287Z,7.47
2022-10-17T22:28:03.346Z,7.57
2022-10-17T22:30:32.283Z,8.80
2022-10-17T22:33:01.121Z,9.27
2022-10-17T22:35:30.003Z,8.32
2022-10-17T22:37:58.808Z,9.23
2022-10-17T22:40:27.688Z,9.00
2022-10-17T22:42:58.070Z,7.55
2022-10-17T22:45:26.906Z,8.38
2022-10-17T22:47:55.890Z,10.98
2022-10-17T22:50:25.397Z,7.80
2022-10-17T22:52:54.220Z,7.85
2022-10-17T22:55:23.137Z,7.00
2022-10-17T22:57:51.970Z,17.63
2022-10-17T23:00:22.439Z,15.00
2022-10-17T23:02:54.728Z,15.90
2022-10-17T23:05:23.601Z,8.30
2022-10-17T23:07:52.417Z,10.20
2022-10-17T23:10:21.238Z,6.82
2022-10-17T23:12:50.044Z,7.82
2022-10-17T23:15:18.975Z,6.80
2022-10-17T23:17:49.199Z,7.55
2022-10-17T23:20:18.272Z,9.18
2022-10-17T23:22:47.142Z,8.90
2022-10-17T23:25:16.140Z,13.15
2022-10-17T23:27:45.544Z,10.85
2022-10-17T23:30:14.821Z,9.18
2022-10-17T23:32:43.819Z,9.63
2022-10-17T23:35:14.064Z,10.35
2022-10-17T23:37:43.066Z,9.45
2022-10-17T23:40:13.265Z,7.50
2022-10-17T23:42:42.102Z,9.10
2022-10-17T23:45:11.798Z,10.00
2022-10-17T23:47:40.885Z,7.93
2022-10-17T23:50:09.974Z,6.95
2022-10-17T23:52:40.317Z,6.05
2022-10-17T23:55:10.735Z,4.63
2022-10-17T23:57:39.535Z,4.05
